sensor_id;sensor_type;location;lat;lon;timestamp;temperature;humidity
30534;DHT22;17318;52.390;9.754;2023-03-31T00:01:04;13.80;99.90
30534;DHT22;17318;52.390;9.754;2023-03-31T00:03:30;13.80;99.90
30534;DHT22;17318;52.390;9.754;2023-03-31T00:05:59;13.70;99.90
30534;DHT22;17318;52.390;9.754;2023-03-31T00:08:29;13.80;99.90
30534;DHT22;17318;52.390;9.754;2023-03-31T00:11:01;13.80;99.90
30534;DHT22;17318;52.390;9.754;2023-03-31T00:13:29;13.80;99.90
30534;DHT22;17318;52.390;9.754;2023-03-31T00:15:56;13.70;99.90
30534;DHT22;17318;52.390;9.754;2023-03-31T00:18:22;13.80;99.90
30534;DHT22;17318;52.390;9.754;2023-03-31T00:20:51;13.80;99.90
30534;DHT22;17318;52.390;9.754;2023-03-31T00:23:18;13.80;99.90
30534;DHT22;17318;52.390;9.754;2023-03-31T00:25:55;13.80;99.90
30534;DHT22;17318;52.390;9.754;2023-03-31T00:28:21;13.80;99.90
30534;DHT22;17318;52.390;9.754;2023-03-31T00:30:46;13.80;99.90
30534;DHT22;17318;52.390;9.754;2023-03-31T00:33:12;13.70;99.90
30534;DHT22;17318;52.390;9.754;2023-03-31T00:35:38;13.80;99.90
30534;DHT22;17318;52.390;9.754;2023-03-31T00:38:05;13.60;99.90
30534;DHT22;17318;52.390;9.754;2023-03-31T00:40:34;13.60;99.90
30534;DHT22;17318;52.390;9.754;2023-03-31T00:43:00;13.60;99.90
30534;DHT22;17318;52.390;9.754;2023-03-31T00:45:28;13.60;99.90
30534;DHT22;17318;52.390;9.754;2023-03-31T00:48:15;13.60;99.90
30534;DHT22;17318;52.390;9.754;2023-03-31T00:50:48;13.50;99.90
30534;DHT22;17318;52.390;9.754;2023-03-31T00:53:16;13.50;99.90
30534;DHT22;17318;52.390;9.754;2023-03-31T00:55:47;13.50;99.90
30534;DHT22;17318;52.390;9.754;2023-03-31T00:58:14;13.60;99.90
30534;DHT22;17318;52.390;9.754;2023-03-31T01:00:48;13.60;99.90
30534;DHT22;17318;52.390;9.754;2023-03-31T01:03:15;13.60;99.90
30534;DHT22;17318;52.390;9.754;2023-03-31T01:06:08;13.60;99.90
30534;DHT22;17318;52.390;9.754;2023-03-31T01:08:36;13.60;99.90
30534;DHT22;17318;52.390;9.754;2023-03-31T01:11:08;13.60;99.90
30534;DHT22;17318;52.390;9.754;2023-03-31T01:13:36;13.60;99.90
30534;DHT22;17318;52.390;9.754;2023-03-31T01:16:03;13.60;99.90
30534;DHT22;17318;52.390;9.754;2023-03-31T01:18:28;13.60;99.90
30534;DHT22;17318;52.390;9.754;2023-03-31T01:21:16;13.60;99.90
30534;DHT22;17318;52.390;9.754;2023-03-31T01:29:43;13.50;99.90
30534;DHT22;17318;52.390;9.754;2023-03-31T01:46:01;13.50;99.90
30534;DHT22;17318;52.390;9.754;2023-03-31T01:53:59;13.40;99.90
30534;DHT22;17318;52.390;9.754;2023-03-31T01:56:40;13.40;99.90
30534;DHT22;17318;52.390;9.754;2023-03-31T01:59:15;13.40;99.90
30534;DHT22;17318;52.390;9.754;2023-03-31T02:04:14;13.40;99.90
30534;DHT22;17318;52.390;9.754;2023-03-31T02:06:44;13.40;99.90
30534;DHT22;17318;52.390;9.754;2023-03-31T02:09:18;13.40;99.90
30534;DHT22;17318;52.390;9.754;2023-03-31T02:11:46;13.40;99.90
30534;DHT22;17318;52.390;9.754;2023-03-31T02:14:19;13.30;99.90
30534;DHT22;17318;52.390;9.754;2023-03-31T02:16:49;13.30;99.90
30534;DHT22;17318;52.390;9.754;2023-03-31T02:19:18;13.30;99.90
30534;DHT22;17318;52.390;9.754;2023-03-31T02:21:47;13.20;99.90
30534;DHT22;17318;52.390;9.754;2023-03-31T02:24:18;13.30;99.90
30534;DHT22;17318;52.390;9.754;2023-03-31T02:29:21;13.20;99.90
30534;DHT22;17318;52.390;9.754;2023-03-31T02:31:55;13.20;99.90
30534;DHT22;17318;52.390;9.754;2023-03-31T02:34:22;13.10;99.90
30534;DHT22;17318;52.390;9.754;2023-03-31T02:36:48;13.10;99.90
30534;DHT22;17318;52.390;9.754;2023-03-31T02:39:18;13.10;99.90
30534;DHT22;17318;52.390;9.754;2023-03-31T02:41:46;13.10;99.90
30534;DHT22;17318;52.390;9.754;2023-03-31T02:44:11;13.20;99.90
30534;DHT22;17318;52.390;9.754;2023-03-31T02:46:38;13.20;99.90
30534;DHT22;17318;52.390;9.754;2023-03-31T02:49:06;13.10;99.90
30534;DHT22;17318;52.390;9.754;2023-03-31T02:52:08;13.10;99.90
30534;DHT22;17318;52.390;9.754;2023-03-31T02:58:09;13.10;99.90
30534;DHT22;17318;52.390;9.754;2023-03-31T03:03:39;13.10;99.90
30534;DHT22;17318;52.390;9.754;2023-03-31T03:06:31;13.10;99.90
30534;DHT22;17318;52.390;9.754;2023-03-31T03:09:24;13.10;99.90
30534;DHT22;17318;52.390;9.754;2023-03-31T03:14:43;13.10;99.90
30534;DHT22;17318;52.390;9.754;2023-03-31T03:17:31;13.10;99.90
30534;DHT22;17318;52.390;9.754;2023-03-31T03:19:59;13.10;99.90
30534;DHT22;17318;52.390;9.754;2023-03-31T03:22:26;13.00;99.90
30534;DHT22;17318;52.390;9.754;2023-03-31T03:24:51;13.00;99.90
30534;DHT22;17318;52.390;9.754;2023-03-31T03:27:18;13.00;99.90
30534;DHT22;17318;52.390;9.754;2023-03-31T03:29:46;13.00;99.90
30534;DHT22;17318;52.390;9.754;2023-03-31T03:32:12;13.00;99.90
30534;DHT22;17318;52.390;9.754;2023-03-31T03:34:38;13.00;99.90
30534;DHT22;17318;52.390;9.754;2023-03-31T03:37:04;13.00;99.90
30534;DHT22;17318;52.390;9.754;2023-03-31T03:39:30;13.00;99.90
30534;DHT22;17318;52.390;9.754;2023-03-31T03:41:56;13.00;99.90
30534;DHT22;17318;52.390;9.754;2023-03-31T03:44:22;12.90;99.90
30534;DHT22;17318;52.390;9.754;2023-03-31T03:46:47;12.90;99.90
30534;DHT22;17318;52.390;9.754;2023-03-31T03:49:13;12.90;99.90
30534;DHT22;17318;52.390;9.754;2023-03-31T03:51:38;12.90;99.90
30534;DHT22;17318;52.390;9.754;2023-03-31T03:54:04;13.00;99.90
30534;DHT22;17318;52.390;9.754;2023-03-31T03:56:30;12.90;99.90
30534;DHT22;17318;52.390;9.754;2023-03-31T03:58:56;12.90;99.90
30534;DHT22;17318;52.390;9.754;2023-03-31T04:01:22;12.90;99.90
30534;DHT22;17318;52.390;9.754;2023-03-31T04:03:48;12.80;99.90
30534;DHT22;17318;52.390;9.754;2023-03-31T04:06:13;12.80;99.90
30534;DHT22;17318;52.390;9.754;2023-03-31T04:08:39;12.80;99.90
30534;DHT22;17318;52.390;9.754;2023-03-31T04:11:23;12.70;99.90
30534;DHT22;17318;52.390;9.754;2023-03-31T04:13:49;12.70;99.90
30534;DHT22;17318;52.390;9.754;2023-03-31T04:16:15;12.70;99.90
30534;DHT22;17318;52.390;9.754;2023-03-31T04:18:41;12.70;99.90
30534;DHT22;17318;52.390;9.754;2023-03-31T04:21:11;12.70;99.90
30534;DHT22;17318;52.390;9.754;2023-03-31T04:23:40;12.60;99.90
30534;DHT22;17318;52.390;9.754;2023-03-31T04:26:17;12.60;99.90
30534;DHT22;17318;52.390;9.754;2023-03-31T04:28:43;12.60;99.90
30534;DHT22;17318;52.390;9.754;2023-03-31T04:31:11;12.60;99.90
30534;DHT22;17318;52.390;9.754;2023-03-31T04:33:40;12.50;99.90
30534;DHT22;17318;52.390;9.754;2023-03-31T04:36:06;12.50;99.90
30534;DHT22;17318;52.390;9.754;2023-03-31T04:38:46;12.50;99.90
30534;DHT22;17318;52.390;9.754;2023-03-31T04:41:18;12.40;99.90
30534;DHT22;17318;52.390;9.754;2023-03-31T04:43:44;12.50;99.90
30534;DHT22;17318;52.390;9.754;2023-03-31T04:46:10;12.50;99.90
30534;DHT22;17318;52.390;9.754;2023-03-31T04:48:35;12.50;99.90
30534;DHT22;17318;52.390;9.754;2023-03-31T04:51:01;12.50;99.90
30534;DHT22;17318;52.390;9.754;2023-03-31T04:53:27;12.50;99.90
30534;DHT22;17318;52.390;9.754;2023-03-31T04:55:53;12.50;99.90
30534;DHT22;17318;52.390;9.754;2023-03-31T04:58:18;12.50;99.90
30534;DHT22;17318;52.390;9.754;2023-03-31T05:00:44;12.50;99.90
30534;DHT22;17318;52.390;9.754;2023-03-31T05:03:10;12.50;99.90
30534;DHT22;17318;52.390;9.754;2023-03-31T05:05:36;12.60;99.90
30534;DHT22;17318;52.390;9.754;2023-03-31T05:08:02;12.50;99.90
30534;DHT22;17318;52.390;9.754;2023-03-31T05:10:29;12.50;99.90
30534;DHT22;17318;52.390;9.754;2023-03-31T05:12:55;12.50;99.90
30534;DHT22;17318;52.390;9.754;2023-03-31T05:15:20;12.60;99.90
30534;DHT22;17318;52.390;9.754;2023-03-31T05:17:46;12.60;99.90
30534;DHT22;17318;52.390;9.754;2023-03-31T05:20:12;12.50;99.90
30534;DHT22;17318;52.390;9.754;2023-03-31T05:22:40;12.60;99.90
30534;DHT22;17318;52.390;9.754;2023-03-31T05:25:07;12.60;99.90
30534;DHT22;17318;52.390;9.754;2023-03-31T05:27:34;12.60;99.90
30534;DHT22;17318;52.390;9.754;2023-03-31T05:30:01;12.70;99.90
30534;DHT22;17318;52.390;9.754;2023-03-31T05:32:27;12.70;99.90
30534;DHT22;17318;52.390;9.754;2023-03-31T05:34:53;12.70;99.90
30534;DHT22;17318;52.390;9.754;2023-03-31T05:37:25;12.70;99.90
30534;DHT22;17318;52.390;9.754;2023-03-31T05:39:51;12.70;99.90
30534;DHT22;17318;52.390;9.754;2023-03-31T05:42:17;12.70;99.90
30534;DHT22;17318;52.390;9.754;2023-03-31T05:44:44;12.70;99.90
30534;DHT22;17318;52.390;9.754;2023-03-31T05:47:09;12.70;99.90
30534;DHT22;17318;52.390;9.754;2023-03-31T05:49:35;12.70;99.90
30534;DHT22;17318;52.390;9.754;2023-03-31T05:52:01;12.80;99.90
30534;DHT22;17318;52.390;9.754;2023-03-31T05:54:27;12.90;99.90
30534;DHT22;17318;52.390;9.754;2023-03-31T05:56:52;12.70;99.90
30534;DHT22;17318;52.390;9.754;2023-03-31T05:59:18;12.80;99.90
30534;DHT22;17318;52.390;9.754;2023-03-31T06:01:44;12.80;99.90
30534;DHT22;17318;52.390;9.754;2023-03-31T06:04:09;12.90;99.90
30534;DHT22;17318;52.390;9.754;2023-03-31T06:06:35;12.80;99.90
30534;DHT22;17318;52.390;9.754;2023-03-31T06:09:03;12.80;99.90
30534;DHT22;17318;52.390;9.754;2023-03-31T06:11:30;12.80;99.90
30534;DHT22;17318;52.390;9.754;2023-03-31T06:13:56;12.80;99.90
30534;DHT22;17318;52.390;9.754;2023-03-31T06:16:21;12.90;99.90
30534;DHT22;17318;52.390;9.754;2023-03-31T06:18:47;12.90;99.90
30534;DHT22;17318;52.390;9.754;2023-03-31T06:21:15;12.80;99.90
30534;DHT22;17318;52.390;9.754;2023-03-31T06:23:41;12.80;99.90
30534;DHT22;17318;52.390;9.754;2023-03-31T06:26:15;12.70;99.90
30534;DHT22;17318;52.390;9.754;2023-03-31T06:28:41;12.70;99.90
30534;DHT22;17318;52.390;9.754;2023-03-31T06:31:10;12.70;99.90
30534;DHT22;17318;52.390;9.754;2023-03-31T06:33:37;12.80;99.90
30534;DHT22;17318;52.390;9.754;2023-03-31T06:36:04;12.80;99.90
30534;DHT22;17318;52.390;9.754;2023-03-31T06:38:32;12.80;99.90
30534;DHT22;17318;52.390;9.754;2023-03-31T06:40:58;12.80;99.90
30534;DHT22;17318;52.390;9.754;2023-03-31T06:43:23;12.80;99.90
30534;DHT22;17318;52.390;9.754;2023-03-31T06:45:51;12.80;99.90
30534;DHT22;17318;52.390;9.754;2023-03-31T06:48:17;12.80;99.90
30534;DHT22;17318;52.390;9.754;2023-03-31T06:50:43;12.80;99.90
30534;DHT22;17318;52.390;9.754;2023-03-31T06:53:08;12.80;99.90
30534;DHT22;17318;52.390;9.754;2023-03-31T06:55:35;12.80;99.90
30534;DHT22;17318;52.390;9.754;2023-03-31T06:58:01;12.70;99.90
30534;DHT22;17318;52.390;9.754;2023-03-31T07:00:27;12.70;99.90
30534;DHT22;17318;52.390;9.754;2023-03-31T07:02:53;12.70;99.90
30534;DHT22;17318;52.390;9.754;2023-03-31T07:05:19;12.70;99.90
30534;DHT22;17318;52.390;9.754;2023-03-31T07:07:52;12.80;99.90
30534;DHT22;17318;52.390;9.754;2023-03-31T07:10:17;12.80;99.90
30534;DHT22;17318;52.390;9.754;2023-03-31T07:12:43;12.80;99.90
30534;DHT22;17318;52.390;9.754;2023-03-31T07:15:09;12.80;99.90
30534;DHT22;17318;52.390;9.754;2023-03-31T07:17:35;12.80;99.90
30534;DHT22;17318;52.390;9.754;2023-03-31T07:20:02;12.70;99.90
30534;DHT22;17318;52.390;9.754;2023-03-31T07:22:29;12.70;99.90
30534;DHT22;17318;52.390;9.754;2023-03-31T07:24:55;12.90;99.90
30534;DHT22;17318;52.390;9.754;2023-03-31T07:27:21;12.70;99.90
30534;DHT22;17318;52.390;9.754;2023-03-31T07:29:46;12.70;99.90
30534;DHT22;17318;52.390;9.754;2023-03-31T07:32:12;12.70;99.90
30534;DHT22;17318;52.390;9.754;2023-03-31T07:34:38;12.80;99.90
30534;DHT22;17318;52.390;9.754;2023-03-31T07:37:05;12.80;99.90
30534;DHT22;17318;52.390;9.754;2023-03-31T07:39:31;12.70;99.90
30534;DHT22;17318;52.390;9.754;2023-03-31T07:41:57;12.70;99.90
30534;DHT22;17318;52.390;9.754;2023-03-31T07:44:23;12.70;99.90
30534;DHT22;17318;52.390;9.754;2023-03-31T07:46:48;12.70;99.90
30534;DHT22;17318;52.390;9.754;2023-03-31T07:49:14;12.70;99.90
30534;DHT22;17318;52.390;9.754;2023-03-31T07:51:40;12.70;99.90
30534;DHT22;17318;52.390;9.754;2023-03-31T07:54:06;12.70;99.90
30534;DHT22;17318;52.390;9.754;2023-03-31T07:56:32;12.80;99.90
30534;DHT22;17318;52.390;9.754;2023-03-31T07:58:58;12.80;99.90
30534;DHT22;17318;52.390;9.754;2023-03-31T08:01:24;12.80;99.90
30534;DHT22;17318;52.390;9.754;2023-03-31T08:03:50;12.90;99.90
30534;DHT22;17318;52.390;9.754;2023-03-31T08:06:20;13.00;99.90
30534;DHT22;17318;52.390;9.754;2023-03-31T08:08:47;12.90;99.90
30534;DHT22;17318;52.390;9.754;2023-03-31T08:11:12;12.90;99.90
30534;DHT22;17318;52.390;9.754;2023-03-31T08:13:38;13.00;99.90
30534;DHT22;17318;52.390;9.754;2023-03-31T08:16:04;13.00;99.90
30534;DHT22;17318;52.390;9.754;2023-03-31T08:18:29;13.10;99.90
30534;DHT22;17318;52.390;9.754;2023-03-31T08:20:55;13.10;99.90
30534;DHT22;17318;52.390;9.754;2023-03-31T08:23:21;13.10;99.90
30534;DHT22;17318;52.390;9.754;2023-03-31T08:25:47;13.10;99.90
30534;DHT22;17318;52.390;9.754;2023-03-31T08:28:12;13.10;99.90
30534;DHT22;17318;52.390;9.754;2023-03-31T08:30:39;13.20;99.90
30534;DHT22;17318;52.390;9.754;2023-03-31T08:33:05;13.00;99.90
30534;DHT22;17318;52.390;9.754;2023-03-31T08:35:33;13.10;99.90
30534;DHT22;17318;52.390;9.754;2023-03-31T08:37:59;13.10;99.90
30534;DHT22;17318;52.390;9.754;2023-03-31T08:40:27;13.10;99.90
30534;DHT22;17318;52.390;9.754;2023-03-31T08:43:05;13.10;99.90
30534;DHT22;17318;52.390;9.754;2023-03-31T08:45:34;13.10;99.90
30534;DHT22;17318;52.390;9.754;2023-03-31T08:50:33;13.20;99.90
30534;DHT22;17318;52.390;9.754;2023-03-31T08:53:20;13.20;99.90
30534;DHT22;17318;52.390;9.754;2023-03-31T08:55:53;13.20;99.90
30534;DHT22;17318;52.390;9.754;2023-03-31T08:58:44;13.40;99.90
30534;DHT22;17318;52.390;9.754;2023-03-31T09:10:17;13.40;99.90
30534;DHT22;17318;52.390;9.754;2023-03-31T09:18:28;13.40;99.90
30534;DHT22;17318;52.390;9.754;2023-03-31T09:21:11;13.30;99.90
30534;DHT22;17318;52.390;9.754;2023-03-31T09:23:43;13.10;99.90
30534;DHT22;17318;52.390;9.754;2023-03-31T09:26:28;13.10;99.90
30534;DHT22;17318;52.390;9.754;2023-03-31T09:28:58;13.10;99.90
30534;DHT22;17318;52.390;9.754;2023-03-31T09:31:24;13.20;99.90
30534;DHT22;17318;52.390;9.754;2023-03-31T09:33:54;13.10;99.90
30534;DHT22;17318;52.390;9.754;2023-03-31T09:36:22;13.10;99.90
30534;DHT22;17318;52.390;9.754;2023-03-31T09:38:48;13.10;99.90
30534;DHT22;17318;52.390;9.754;2023-03-31T09:41:15;13.10;99.90
30534;DHT22;17318;52.390;9.754;2023-03-31T09:43:42;13.10;99.90
30534;DHT22;17318;52.390;9.754;2023-03-31T09:46:27;13.10;99.90
30534;DHT22;17318;52.390;9.754;2023-03-31T09:49:11;13.10;99.90
30534;DHT22;17318;52.390;9.754;2023-03-31T09:51:41;13.10;99.90
30534;DHT22;17318;52.390;9.754;2023-03-31T09:54:23;13.10;99.90
30534;DHT22;17318;52.390;9.754;2023-03-31T09:56:53;13.10;99.90
30534;DHT22;17318;52.390;9.754;2023-03-31T09:59:42;13.10;99.90
30534;DHT22;17318;52.390;9.754;2023-03-31T10:02:34;13.10;99.90
30534;DHT22;17318;52.390;9.754;2023-03-31T10:05:02;13.00;99.90
30534;DHT22;17318;52.390;9.754;2023-03-31T10:07:28;13.00;99.90
30534;DHT22;17318;52.390;9.754;2023-03-31T10:09:55;13.00;99.90
30534;DHT22;17318;52.390;9.754;2023-03-31T10:12:25;13.10;99.90
30534;DHT22;17318;52.390;9.754;2023-03-31T10:15:00;13.10;99.90
30534;DHT22;17318;52.390;9.754;2023-03-31T10:17:27;13.10;99.90
30534;DHT22;17318;52.390;9.754;2023-03-31T10:19:56;13.20;99.90
30534;DHT22;17318;52.390;9.754;2023-03-31T10:24:49;13.10;99.90
30534;DHT22;17318;52.390;9.754;2023-03-31T10:27:22;13.10;99.90
30534;DHT22;17318;52.390;9.754;2023-03-31T10:30:09;13.10;99.90
30534;DHT22;17318;52.390;9.754;2023-03-31T10:32:42;13.20;99.90
30534;DHT22;17318;52.390;9.754;2023-03-31T10:35:31;13.10;99.90
30534;DHT22;17318;52.390;9.754;2023-03-31T10:38:02;13.00;99.90
30534;DHT22;17318;52.390;9.754;2023-03-31T10:40:31;12.90;99.90
30534;DHT22;17318;52.390;9.754;2023-03-31T10:43:07;13.00;99.90
30534;DHT22;17318;52.390;9.754;2023-03-31T10:45:48;13.00;99.90
30534;DHT22;17318;52.390;9.754;2023-03-31T10:48:34;13.00;99.90
30534;DHT22;17318;52.390;9.754;2023-03-31T10:51:26;13.00;99.90
30534;DHT22;17318;52.390;9.754;2023-03-31T10:53:54;13.00;99.90
30534;DHT22;17318;52.390;9.754;2023-03-31T10:56:42;13.00;99.90
30534;DHT22;17318;52.390;9.754;2023-03-31T11:04:51;13.00;99.90
30534;DHT22;17318;52.390;9.754;2023-03-31T11:10:11;13.10;99.90
30534;DHT22;17318;52.390;9.754;2023-03-31T11:27:20;13.10;99.90
30534;DHT22;17318;52.390;9.754;2023-03-31T11:41:22;13.30;99.90
30534;DHT22;17318;52.390;9.754;2023-03-31T11:43:55;13.20;99.90
30534;DHT22;17318;52.390;9.754;2023-03-31T11:46:26;13.20;99.90
30534;DHT22;17318;52.390;9.754;2023-03-31T11:48:54;13.20;99.90
30534;DHT22;17318;52.390;9.754;2023-03-31T11:51:42;13.20;99.90
30534;DHT22;17318;52.390;9.754;2023-03-31T11:54:27;13.30;99.90
30534;DHT22;17318;52.390;9.754;2023-03-31T11:56:55;13.30;99.90
30534;DHT22;17318;52.390;9.754;2023-03-31T11:59:24;13.30;99.90
30534;DHT22;17318;52.390;9.754;2023-03-31T12:02:09;13.30;99.90
30534;DHT22;17318;52.390;9.754;2023-03-31T12:04:42;13.20;99.90
30534;DHT22;17318;52.390;9.754;2023-03-31T12:07:33;13.30;99.90
30534;DHT22;17318;52.390;9.754;2023-03-31T12:10:04;13.40;99.90
30534;DHT22;17318;52.390;9.754;2023-03-31T12:12:41;13.50;99.90
30534;DHT22;17318;52.390;9.754;2023-03-31T12:15:24;13.30;99.90
30534;DHT22;17318;52.390;9.754;2023-03-31T12:18:07;13.40;99.90
30534;DHT22;17318;52.390;9.754;2023-03-31T12:20:38;13.40;99.90
30534;DHT22;17318;52.390;9.754;2023-03-31T12:23:13;13.40;99.90
30534;DHT22;17318;52.390;9.754;2023-03-31T12:26:11;13.40;99.90
30534;DHT22;17318;52.390;9.754;2023-03-31T12:28:35;13.50;99.90
30534;DHT22;17318;52.390;9.754;2023-03-31T12:31:04;13.50;99.90
30534;DHT22;17318;52.390;9.754;2023-03-31T12:42:30;13.70;99.90
30534;DHT22;17318;52.390;9.754;2023-03-31T12:44:56;13.80;99.90
30534;DHT22;17318;52.390;9.754;2023-03-31T12:53:14;13.80;99.90
30534;DHT22;17318;52.390;9.754;2023-03-31T12:55:45;13.90;99.90
30534;DHT22;17318;52.390;9.754;2023-03-31T13:06:03;14.30;99.90
30534;DHT22;17318;52.390;9.754;2023-03-31T13:11:14;14.50;99.90
30534;DHT22;17318;52.390;9.754;2023-03-31T13:13:46;14.50;99.90
30534;DHT22;17318;52.390;9.754;2023-03-31T13:16:19;14.70;99.90
30534;DHT22;17318;52.390;9.754;2023-03-31T13:18:53;14.70;99.90
30534;DHT22;17318;52.390;9.754;2023-03-31T13:21:19;14.70;99.90
30534;DHT22;17318;52.390;9.754;2023-03-31T13:23:46;14.80;99.90
30534;DHT22;17318;52.390;9.754;2023-03-31T13:34:46;14.90;99.90
30534;DHT22;17318;52.390;9.754;2023-03-31T13:43:06;15.00;99.90
30534;DHT22;17318;52.390;9.754;2023-03-31T13:51:00;14.80;99.90
30534;DHT22;17318;52.390;9.754;2023-03-31T13:59:20;14.80;99.90
30534;DHT22;17318;52.390;9.754;2023-03-31T14:07:52;14.50;99.90
30534;DHT22;17318;52.390;9.754;2023-03-31T14:13:11;14.60;99.90
30534;DHT22;17318;52.390;9.754;2023-03-31T14:18:17;14.70;99.90
30534;DHT22;17318;52.390;9.754;2023-03-31T14:29:23;14.60;99.90
30534;DHT22;17318;52.390;9.754;2023-03-31T14:32:21;14.50;99.90
30534;DHT22;17318;52.390;9.754;2023-03-31T14:37:25;14.60;99.90
30534;DHT22;17318;52.390;9.754;2023-03-31T14:39:54;14.60;99.90
30534;DHT22;17318;52.390;9.754;2023-03-31T14:42:25;14.60;99.90
30534;DHT22;17318;52.390;9.754;2023-03-31T14:44:55;14.80;99.90
30534;DHT22;17318;52.390;9.754;2023-03-31T14:47:26;14.70;99.90
30534;DHT22;17318;52.390;9.754;2023-03-31T14:50:00;14.70;99.90
30534;DHT22;17318;52.390;9.754;2023-03-31T14:52:29;14.70;99.90
30534;DHT22;17318;52.390;9.754;2023-03-31T14:54:57;14.70;99.90
30534;DHT22;17318;52.390;9.754;2023-03-31T14:57:29;14.70;99.90
30534;DHT22;17318;52.390;9.754;2023-03-31T14:59:55;14.70;99.90
30534;DHT22;17318;52.390;9.754;2023-03-31T15:02:35;14.60;99.90
30534;DHT22;17318;52.390;9.754;2023-03-31T15:05:09;14.70;99.90
30534;DHT22;17318;52.390;9.754;2023-03-31T15:07:40;14.60;99.90
30534;DHT22;17318;52.390;9.754;2023-03-31T15:10:06;14.50;99.90
30534;DHT22;17318;52.390;9.754;2023-03-31T15:12:32;14.50;99.90
30534;DHT22;17318;52.390;9.754;2023-03-31T15:15:03;14.50;99.90
30534;DHT22;17318;52.390;9.754;2023-03-31T15:17:38;14.40;99.90
30534;DHT22;17318;52.390;9.754;2023-03-31T15:20:24;14.40;99.90
30534;DHT22;17318;52.390;9.754;2023-03-31T15:22:57;14.30;99.90
30534;DHT22;17318;52.390;9.754;2023-03-31T15:25:34;14.30;99.90
30534;DHT22;17318;52.390;9.754;2023-03-31T15:28:05;14.30;99.90
30534;DHT22;17318;52.390;9.754;2023-03-31T15:30:31;14.20;99.90
30534;DHT22;17318;52.390;9.754;2023-03-31T15:32:59;14.20;99.90
30534;DHT22;17318;52.390;9.754;2023-03-31T15:35:34;14.20;99.90
30534;DHT22;17318;52.390;9.754;2023-03-31T15:38:02;14.20;99.90
30534;DHT22;17318;52.390;9.754;2023-03-31T15:40:35;14.10;99.90
30534;DHT22;17318;52.390;9.754;2023-03-31T15:48:02;13.90;99.90
30534;DHT22;17318;52.390;9.754;2023-03-31T15:50:29;13.70;99.90
30534;DHT22;17318;52.390;9.754;2023-03-31T15:52:56;13.70;99.90
30534;DHT22;17318;52.390;9.754;2023-03-31T15:55:29;13.50;99.90
30534;DHT22;17318;52.390;9.754;2023-03-31T15:57:57;13.50;99.90
30534;DHT22;17318;52.390;9.754;2023-03-31T16:03:00;13.70;99.90
30534;DHT22;17318;52.390;9.754;2023-03-31T16:05:46;13.80;99.90
30534;DHT22;17318;52.390;9.754;2023-03-31T16:08:19;13.80;99.90
30534;DHT22;17318;52.390;9.754;2023-03-31T16:10:46;13.80;99.90
30534;DHT22;17318;52.390;9.754;2023-03-31T16:13:17;13.80;99.90
30534;DHT22;17318;52.390;9.754;2023-03-31T16:15:48;14.00;99.90
30534;DHT22;17318;52.390;9.754;2023-03-31T16:18:27;14.00;99.90
30534;DHT22;17318;52.390;9.754;2023-03-31T16:20:55;13.90;99.90
30534;DHT22;17318;52.390;9.754;2023-03-31T16:23:25;13.90;99.90
30534;DHT22;17318;52.390;9.754;2023-03-31T16:25:52;13.90;99.90
30534;DHT22;17318;52.390;9.754;2023-03-31T16:28:36;13.90;99.90
30534;DHT22;17318;52.390;9.754;2023-03-31T16:31:03;13.90;99.90
30534;DHT22;17318;52.390;9.754;2023-03-31T16:33:30;13.90;99.90
30534;DHT22;17318;52.390;9.754;2023-03-31T16:36:15;13.90;99.90
30534;DHT22;17318;52.390;9.754;2023-03-31T16:38:42;14.00;99.90
30534;DHT22;17318;52.390;9.754;2023-03-31T16:41:08;13.90;99.90
30534;DHT22;17318;52.390;9.754;2023-03-31T16:43:33;13.90;99.90
30534;DHT22;17318;52.390;9.754;2023-03-31T16:46:01;13.80;99.90
30534;DHT22;17318;52.390;9.754;2023-03-31T16:48:29;13.90;99.90
30534;DHT22;17318;52.390;9.754;2023-03-31T16:50:57;13.80;99.90
30534;DHT22;17318;52.390;9.754;2023-03-31T16:53:28;13.80;99.90
30534;DHT22;17318;52.390;9.754;2023-03-31T16:55:55;13.70;99.90
30534;DHT22;17318;52.390;9.754;2023-03-31T16:58:21;13.70;99.90
30534;DHT22;17318;52.390;9.754;2023-03-31T17:00:49;13.70;99.90
30534;DHT22;17318;52.390;9.754;2023-03-31T17:03:15;13.80;99.90
30534;DHT22;17318;52.390;9.754;2023-03-31T17:05:45;13.70;99.90
30534;DHT22;17318;52.390;9.754;2023-03-31T17:08:12;13.70;99.90
30534;DHT22;17318;52.390;9.754;2023-03-31T17:10:39;13.70;99.90
30534;DHT22;17318;52.390;9.754;2023-03-31T17:13:06;13.70;99.90
30534;DHT22;17318;52.390;9.754;2023-03-31T17:15:32;13.60;99.90
30534;DHT22;17318;52.390;9.754;2023-03-31T17:18:00;13.60;99.90
30534;DHT22;17318;52.390;9.754;2023-03-31T17:20:28;13.60;99.90
30534;DHT22;17318;52.390;9.754;2023-03-31T17:22:53;13.60;99.90
30534;DHT22;17318;52.390;9.754;2023-03-31T17:25:20;13.60;99.90
30534;DHT22;17318;52.390;9.754;2023-03-31T17:27:46;13.50;99.90
30534;DHT22;17318;52.390;9.754;2023-03-31T17:30:12;13.50;99.90
30534;DHT22;17318;52.390;9.754;2023-03-31T17:32:38;13.50;99.90
30534;DHT22;17318;52.390;9.754;2023-03-31T17:35:04;13.40;99.90
30534;DHT22;17318;52.390;9.754;2023-03-31T17:37:31;13.30;99.90
30534;DHT22;17318;52.390;9.754;2023-03-31T17:39:57;13.30;99.90
30534;DHT22;17318;52.390;9.754;2023-03-31T17:42:23;13.40;99.90
30534;DHT22;17318;52.390;9.754;2023-03-31T17:44:49;13.30;99.90
30534;DHT22;17318;52.390;9.754;2023-03-31T17:47:17;13.20;99.90
30534;DHT22;17318;52.390;9.754;2023-03-31T17:49:43;13.20;99.90
30534;DHT22;17318;52.390;9.754;2023-03-31T17:52:09;13.20;99.90
30534;DHT22;17318;52.390;9.754;2023-03-31T17:54:35;13.30;99.90
30534;DHT22;17318;52.390;9.754;2023-03-31T17:57:01;13.30;99.90
30534;DHT22;17318;52.390;9.754;2023-03-31T17:59:27;13.30;99.90
30534;DHT22;17318;52.390;9.754;2023-03-31T18:01:53;13.30;99.90
30534;DHT22;17318;52.390;9.754;2023-03-31T18:04:19;13.40;99.90
30534;DHT22;17318;52.390;9.754;2023-03-31T18:06:45;13.40;99.90
30534;DHT22;17318;52.390;9.754;2023-03-31T18:09:13;13.30;99.90
30534;DHT22;17318;52.390;9.754;2023-03-31T18:11:39;13.30;99.90
30534;DHT22;17318;52.390;9.754;2023-03-31T18:14:05;13.30;99.90
30534;DHT22;17318;52.390;9.754;2023-03-31T18:16:32;13.50;99.90
30534;DHT22;17318;52.390;9.754;2023-03-31T18:18:59;13.30;99.90
30534;DHT22;17318;52.390;9.754;2023-03-31T18:21:25;13.30;99.90
30534;DHT22;17318;52.390;9.754;2023-03-31T18:23:51;13.30;99.90
30534;DHT22;17318;52.390;9.754;2023-03-31T18:26:20;13.30;99.90
30534;DHT22;17318;52.390;9.754;2023-03-31T18:28:48;13.30;99.90
30534;DHT22;17318;52.390;9.754;2023-03-31T18:31:14;13.30;99.90
30534;DHT22;17318;52.390;9.754;2023-03-31T18:33:40;13.30;99.90
30534;DHT22;17318;52.390;9.754;2023-03-31T18:36:15;13.40;99.90
30534;DHT22;17318;52.390;9.754;2023-03-31T18:38:41;13.40;99.90
30534;DHT22;17318;52.390;9.754;2023-03-31T18:41:07;13.30;99.90